createdAt,value
2018-09-18T00:01:01.957Z,101345.41
2018-09-18T00:03:31.250Z,101343.42
2018-09-18T00:06:00.587Z,101335.98
2018-09-18T00:08:29.989Z,101336.02
2018-09-18T00:10:59.547Z,101334.92
2018-09-18T00:13:28.851Z,101336.80
2018-09-18T00:15:58.202Z,101339.05
2018-09-18T00:18:28.495Z,101333.95
2018-09-18T00:20:57.971Z,101322.31
2018-09-18T00:23:27.557Z,101329.52
2018-09-18T00:25:56.862Z,101327.64
2018-09-18T00:28:26.155Z,101327.42
2018-09-18T00:30:55.443Z,101325.73
2018-09-18T00:33:24.988Z,101316.13
2018-09-18T00:35:54.386Z,101325.89
2018-09-18T00:38:23.682Z,101326.31
2018-09-18T00:40:52.986Z,101312.94
2018-09-18T00:43:22.363Z,101316.13
2018-09-18T00:45:51.618Z,101320.92
2018-09-18T00:48:21.023Z,101319.45
2018-09-18T00:50:50.386Z,101316.20
2018-09-18T00:53:19.675Z,101310.47
2018-09-18T00:55:49.322Z,101311.37
2018-09-18T00:58:18.615Z,101307.41
2018-09-18T01:00:48.176Z,101306.42
2018-09-18T01:03:17.513Z,101308.50
2018-09-18T01:05:46.825Z,101308.83
2018-09-18T01:08:16.287Z,101305.06
2018-09-18T01:10:45.607Z,101299.97
2018-09-18T01:13:15.053Z,101299.45
2018-09-18T01:15:44.313Z,101299.17
2018-09-18T01:18:13.723Z,101290.87
2018-09-18T01:20:43.195Z,101292.23
2018-09-18T01:23:12.459Z,101289.08
2018-09-18T01:25:41.804Z,101283.52
2018-09-18T01:28:11.090Z,101290.26
2018-09-18T01:30:40.397Z,101279.27
2018-09-18T01:33:09.862Z,101288.61
2018-09-18T01:35:39.199Z,101283.39
2018-09-18T01:38:08.597Z,101283.20
2018-09-18T01:40:38.099Z,101282.86
2018-09-18T01:43:07.486Z,101279.61
2018-09-18T01:45:36.838Z,101283.44
2018-09-18T01:48:06.416Z,101287.66
2018-09-18T01:50:35.888Z,101292.30
2018-09-18T01:53:05.282Z,101285.75
2018-09-18T01:55:34.696Z,101280.50
2018-09-18T01:58:04.006Z,101286.54
2018-09-18T02:00:33.418Z,101281.30
2018-09-18T02:03:03.056Z,101278.52
2018-09-18T02:05:33.064Z,101276.41
2018-09-18T02:08:02.615Z,101276.78
2018-09-18T02:10:32.228Z,101272.20
2018-09-18T02:13:02.163Z,101274.94
2018-09-18T02:15:31.686Z,101268.25
2018-09-18T02:18:01.293Z,101268.95
2018-09-18T02:20:31.071Z,101267.04
2018-09-18T02:23:00.781Z,101267.74
2018-09-18T02:25:30.666Z,101262.52
2018-09-18T02:28:00.275Z,101264.58
2018-09-18T02:30:30.115Z,101258.59
2018-09-18T02:32:59.798Z,101252.27
2018-09-18T02:35:29.406Z,101256.66
2018-09-18T02:37:59.254Z,101256.33
2018-09-18T02:40:28.791Z,101253.08
2018-09-18T02:42:58.331Z,101262.52
2018-09-18T02:45:28.059Z,101251.23
2018-09-18T02:47:57.948Z,101249.23
2018-09-18T02:50:27.502Z,101252.76
2018-09-18T02:52:57.087Z,101251.44
2018-09-18T02:55:26.629Z,101249.27
2018-09-18T02:57:56.119Z,101244.73
2018-09-18T03:00:25.647Z,101244.61
2018-09-18T03:02:55.531Z,101242.15
2018-09-18T03:05:25.139Z,101236.45
2018-09-18T03:07:54.908Z,101234.66
2018-09-18T03:10:25.116Z,101235.56
2018-09-18T03:12:54.896Z,101232.06
2018-09-18T03:15:24.879Z,101238.71
2018-09-18T03:17:54.437Z,101230.23
2018-09-18T03:20:24.035Z,101233.02
2018-09-18T03:22:53.681Z,101235.12
2018-09-18T03:25:23.186Z,101227.69
2018-09-18T03:27:52.675Z,101228.64
2018-09-18T03:30:22.287Z,101224.20
2018-09-18T03:32:52.149Z,101224.10
2018-09-18T03:35:21.834Z,101221.33
2018-09-18T03:37:51.348Z,101222.60
2018-09-18T03:40:20.703Z,101229.38
2018-09-18T03:42:50.319Z,101227.48
2018-09-18T03:45:20.021Z,101218.17
2018-09-18T03:47:49.424Z,101219.09
2018-09-18T03:50:18.810Z,101217.65
2018-09-18T03:52:48.267Z,101221.64
2018-09-18T03:55:17.838Z,101220.23
2018-09-18T03:57:47.250Z,101218.64
2018-09-18T04:00:17.106Z,101214.06
2018-09-18T04:02:46.601Z,101212.29
2018-09-18T04:05:15.898Z,101209.58
2018-09-18T04:07:45.324Z,101207.13
2018-09-18T04:10:14.770Z,101201.86
2018-09-18T04:12:44.170Z,101202.75
2018-09-18T04:15:13.566Z,101206.05
2018-09-18T04:17:43.827Z,101200.69
2018-09-18T04:20:13.396Z,101196.20
2018-09-18T04:22:42.818Z,101196.91
2018-09-18T04:25:12.165Z,101196.20
2018-09-18T04:27:41.455Z,101193.80
2018-09-18T04:30:10.792Z,101191.77
2018-09-18T04:32:40.155Z,101194.13
2018-09-18T04:35:09.462Z,101190.16
2018-09-18T04:37:38.809Z,101193.33
2018-09-18T04:40:09.364Z,101186.33
2018-09-18T04:42:38.737Z,101185.41
2018-09-18T04:45:08.078Z,101185.59
2018-09-18T04:47:37.505Z,101186.36
2018-09-18T04:50:06.911Z,101181.86
2018-09-18T04:52:36.456Z,101183.08
2018-09-18T04:55:06.158Z,101177.77
2018-09-18T04:57:35.497Z,101178.34
2018-09-18T05:00:05.644Z,101176.42
2018-09-18T05:02:35.420Z,101175.33
2018-09-18T05:05:05.362Z,101177.38
2018-09-18T05:07:34.732Z,101180.89
2018-09-18T05:10:04.293Z,101185.63
2018-09-18T05:12:33.635Z,101186.10
2018-09-18T05:15:03.139Z,101191.36
2018-09-18T05:17:33.027Z,101187.50
2018-09-18T05:20:02.773Z,101184.72
2018-09-18T05:22:32.188Z,101179.08
2018-09-18T05:25:01.730Z,101179.03
2018-09-18T05:27:30.995Z,101184.44
2018-09-18T05:30:00.386Z,101187.55
2018-09-18T05:32:29.703Z,101184.02
2018-09-18T05:34:59.440Z,101190.23
2018-09-18T05:37:28.798Z,101186.80
2018-09-18T05:39:58.483Z,101190.14
2018-09-18T05:42:27.855Z,101188.59
2018-09-18T05:44:57.231Z,101186.98
2018-09-18T05:47:26.862Z,101188.24
2018-09-18T05:49:56.253Z,101187.20
2018-09-18T05:52:25.652Z,101189.28
2018-09-18T05:54:55.062Z,101190.39
2018-09-18T05:57:24.465Z,101192.70
2018-09-18T05:59:54.261Z,101187.07
2018-09-18T06:02:23.757Z,101190.13
2018-09-18T06:04:53.039Z,101185.20
2018-09-18T06:07:22.532Z,101181.53
2018-09-18T06:09:52.384Z,101176.98
2018-09-18T06:12:21.745Z,101181.34
2018-09-18T06:14:51.067Z,101175.47
2018-09-18T06:17:20.506Z,101177.80
2018-09-18T06:19:49.943Z,101169.92
2018-09-18T06:22:19.410Z,101162.73
2018-09-18T06:24:48.850Z,101166.38
2018-09-18T06:27:18.291Z,101167.89
2018-09-18T06:29:47.713Z,101169.83
2018-09-18T06:32:17.276Z,101164.91
2018-09-18T06:34:46.669Z,101161.00
2018-09-18T06:37:16.171Z,101163.64
2018-09-18T06:39:45.586Z,101157.97
2018-09-18T06:42:14.927Z,101164.27
2018-09-18T06:44:44.669Z,101163.47
2018-09-18T06:47:14.032Z,101159.87
2018-09-18T06:49:43.762Z,101154.87
2018-09-18T06:52:13.101Z,101163.34
2018-09-18T06:54:42.867Z,101160.22
2018-09-18T06:57:12.237Z,101156.20
2018-09-18T06:59:41.636Z,101154.59
2018-09-18T07:02:11.448Z,101149.30
2018-09-18T07:04:40.865Z,101152.61
2018-09-18T07:07:10.282Z,101160.70
2018-09-18T07:09:39.645Z,101154.37
2018-09-18T07:12:09.110Z,101154.30
2018-09-18T07:14:38.489Z,101148.08
2018-09-18T07:17:08.617Z,101146.00
2018-09-18T07:19:38.455Z,101149.43
2018-09-18T07:22:07.935Z,101145.86
2018-09-18T07:24:37.438Z,101151.10
2018-09-18T07:27:06.836Z,101148.31
2018-09-18T07:29:36.350Z,101146.28
2018-09-18T07:32:05.747Z,101144.03
2018-09-18T07:34:35.148Z,101149.86
2018-09-18T07:37:04.631Z,101150.23
2018-09-18T07:39:34.508Z,101145.52
2018-09-18T07:42:04.077Z,101148.64
2018-09-18T07:44:33.475Z,101152.31
2018-09-18T07:47:02.952Z,101149.26
2018-09-18T07:49:32.337Z,101146.79
2018-09-18T07:52:01.757Z,101137.51
2018-09-18T07:54:31.119Z,101148.28
2018-09-18T07:57:00.513Z,101140.10
2018-09-18T07:59:29.879Z,101137.83
2018-09-18T08:01:59.662Z,101132.70
2018-09-18T08:04:29.048Z,101128.76
2018-09-18T08:06:58.456Z,101132.47
2018-09-18T08:09:27.816Z,101128.19
2018-09-18T08:11:57.254Z,101131.92
2018-09-18T08:14:26.651Z,101132.30
2018-09-18T08:16:56.201Z,101124.04
2018-09-18T08:19:25.772Z,101125.82
2018-09-18T08:21:55.510Z,101121.07
2018-09-18T08:24:25.100Z,101118.50
2018-09-18T08:26:54.575Z,101119.14
2018-09-18T08:29:24.008Z,101113.75
2018-09-18T08:31:53.531Z,101112.55
2018-09-18T08:34:23.074Z,101110.97
2018-09-18T08:36:52.725Z,101107.17
2018-09-18T08:39:22.214Z,101104.02
2018-09-18T08:41:51.609Z,101108.08
2018-09-18T08:44:21.065Z,101111.47
2018-09-18T08:46:50.990Z,101115.46
2018-09-18T08:49:20.471Z,101115.89
2018-09-18T08:51:49.938Z,101110.47
2018-09-18T08:54:19.439Z,101108.21
2018-09-18T08:56:48.828Z,101108.37
2018-09-18T08:59:18.258Z,101107.22
2018-09-18T09:01:47.752Z,101106.75
2018-09-18T09:04:17.170Z,101104.13
2018-09-18T09:06:46.639Z,101103.92
2018-09-18T09:09:17.077Z,101100.82
2018-09-18T09:11:46.831Z,101101.37
2018-09-18T09:14:16.331Z,101090.20
2018-09-18T09:16:45.658Z,101093.58
2018-09-18T09:19:15.071Z,101090.11
2018-09-18T09:21:44.533Z,101085.14
2018-09-18T09:24:14.926Z,101085.17
2018-09-18T09:26:44.424Z,101088.44
2018-09-18T09:29:13.974Z,101076.55
2018-09-18T09:31:43.819Z,101074.94
2018-09-18T09:34:13.252Z,101072.13
2018-09-18T09:36:42.635Z,101068.84
2018-09-18T09:39:12.956Z,101066.30
2018-09-18T09:41:42.338Z,101065.37
2018-09-18T09:44:11.868Z,101059.48
2018-09-18T09:46:41.367Z,101049.30
2018-09-18T09:49:10.853Z,101051.77
2018-09-18T09:51:40.409Z,101051.91
2018-09-18T09:54:10.203Z,101050.01
2018-09-18T09:56:39.733Z,101046.25
2018-09-18T09:59:09.540Z,101046.41
2018-09-18T10:01:47.904Z,101043.70
2018-09-18T10:04:17.707Z,101038.70
2018-09-18T10:06:47.257Z,101025.06
2018-09-18T10:09:17.069Z,101018.64
2018-09-18T10:11:46.622Z,101014.52
2018-09-18T10:14:16.180Z,101016.99
2018-09-18T10:16:45.597Z,101009.27
2018-09-18T10:19:15.037Z,101003.63
2018-09-18T10:21:44.492Z,101007.14
2018-09-18T10:24:13.988Z,101003.37
2018-09-18T10:26:43.340Z,100988.08
2018-09-18T10:29:12.834Z,100989.99
2018-09-18T10:31:42.744Z,100986.47
2018-09-18T10:34:12.144Z,100986.04
2018-09-18T10:36:41.721Z,100990.78
2018-09-18T10:39:12.119Z,100986.56
2018-09-18T10:41:41.652Z,100981.56
2018-09-18T10:44:11.112Z,100985.72
2018-09-18T10:46:40.511Z,100979.91
2018-09-18T10:49:09.918Z,100979.24
2018-09-18T10:51:39.307Z,100971.48
2018-09-18T10:54:08.820Z,100970.22
2018-09-18T10:56:38.366Z,100970.05
2018-09-18T10:59:10.644Z,100963.55
2018-09-18T11:01:39.980Z,100956.89
2018-09-18T11:04:09.744Z,100962.95
2018-09-18T11:06:39.297Z,100944.75
2018-09-18T11:09:10.877Z,100937.95
2018-09-18T11:11:41.885Z,100935.81
2018-09-18T11:14:12.625Z,100934.70
2018-09-18T11:16:42.803Z,100937.32
2018-09-18T11:19:12.425Z,100926.81
2018-09-18T11:21:42.123Z,100943.27
2018-09-18T11:24:11.669Z,100924.65
2018-09-18T11:26:41.195Z,100924.70
2018-09-18T11:29:10.640Z,100914.19
2018-09-18T11:31:40.240Z,100915.36
2018-09-18T11:34:09.635Z,100911.71
2018-09-18T11:36:39.250Z,100917.33
2018-09-18T11:39:08.707Z,100898.17
2018-09-18T11:41:38.282Z,100894.44
2018-09-18T11:44:07.756Z,100903.42
2018-09-18T11:46:37.243Z,100906.99
2018-09-18T11:49:06.657Z,100891.30
2018-09-18T11:51:36.040Z,100896.53
2018-09-18T11:54:05.938Z,100892.55
2018-09-18T11:56:35.361Z,100889.65
2018-09-18T11:59:04.956Z,100888.17
2018-09-18T12:01:34.576Z,100879.45
2018-09-18T12:04:04.101Z,100881.02
2018-09-18T12:06:34.125Z,100898.59
2018-09-18T12:09:03.582Z,100892.75
2018-09-18T12:11:32.898Z,100890.64
2018-09-18T12:14:02.347Z,100878.47
2018-09-18T12:16:32.319Z,100873.82
2018-09-18T12:19:01.816Z,100869.56
2018-09-18T12:21:32.121Z,100867.45
2018-09-18T12:24:01.530Z,100865.25
2018-09-18T12:26:30.933Z,100854.56
2018-09-18T12:29:00.339Z,100867.22
2018-09-18T12:31:29.723Z,100853.56
2018-09-18T12:33:59.142Z,100852.52
2018-09-18T12:36:28.559Z,100845.30
2018-09-18T12:38:58.139Z,100838.95
2018-09-18T12:41:27.601Z,100848.42
2018-09-18T12:43:57.019Z,100842.52
2018-09-18T12:46:26.430Z,100847.41
2018-09-18T12:48:55.997Z,100828.30
2018-09-18T12:51:25.398Z,100831.42
2018-09-18T12:53:54.974Z,100834.09
2018-09-18T12:56:24.754Z,100830.25
2018-09-18T12:58:54.634Z,100820.54
2018-09-18T13:01:24.115Z,100829.31
2018-09-18T13:03:53.674Z,100820.88
2018-09-18T13:06:23.148Z,100825.36
2018-09-18T13:08:52.602Z,100825.32
2018-09-18T13:11:22.495Z,100821.42
2018-09-18T13:13:52.119Z,100811.31
2018-09-18T13:16:21.829Z,100808.12
2018-09-18T13:18:51.390Z,100797.39
2018-09-18T13:21:20.832Z,100804.65
2018-09-18T13:23:50.597Z,100805.92
2018-09-18T13:26:20.203Z,100803.75
2018-09-18T13:28:49.648Z,100809.53
2018-09-18T13:31:19.101Z,100797.50
2018-09-18T13:33:48.555Z,100794.75
2018-09-18T13:36:17.997Z,100787.17
2018-09-18T13:38:47.471Z,100810.57
2018-09-18T13:41:17.056Z,100801.41
2018-09-18T13:43:46.383Z,100795.22
2018-09-18T13:46:16.398Z,100792.22
2018-09-18T13:48:45.740Z,100791.19
2018-09-18T13:51:15.137Z,100788.28
2018-09-18T13:53:44.658Z,100787.05
2018-09-18T13:56:14.244Z,100794.20
2018-09-18T13:58:43.691Z,100782.97
2018-09-18T14:01:13.239Z,100780.34
2018-09-18T14:03:42.531Z,100773.66
2018-09-18T14:06:11.930Z,100768.80
2018-09-18T14:08:42.025Z,100772.63
2018-09-18T14:11:11.353Z,100765.98
2018-09-18T14:13:40.822Z,100770.38
2018-09-18T14:16:10.670Z,100767.08
2018-09-18T14:18:40.208Z,100766.81
2018-09-18T14:21:10.059Z,100767.45
2018-09-18T14:23:39.531Z,100763.52
2018-09-18T14:26:09.224Z,100766.88
2018-09-18T14:28:38.752Z,100763.78
2018-09-18T14:31:08.691Z,100767.11
2018-09-18T14:33:38.093Z,100765.78
2018-09-18T14:36:07.625Z,100752.68
2018-09-18T14:38:37.110Z,100753.13
2018-09-18T14:41:06.647Z,100754.43
2018-09-18T14:43:36.175Z,100756.78
2018-09-18T14:46:05.534Z,100750.68
2018-09-18T14:48:35.008Z,100749.02
2018-09-18T14:51:04.539Z,100747.64
2018-09-18T14:53:34.666Z,100750.42
2018-09-18T14:56:04.316Z,100741.85
2018-09-18T14:58:33.796Z,100747.53
2018-09-18T15:01:03.304Z,100744.05
2018-09-18T15:03:32.721Z,100744.22
2018-09-18T15:06:02.032Z,100743.16
2018-09-18T15:08:31.445Z,100741.84
2018-09-18T15:11:00.797Z,100738.77
2018-09-18T15:13:30.199Z,100744.69
2018-09-18T15:15:59.869Z,100741.89
2018-09-18T15:18:29.352Z,100741.80
2018-09-18T15:20:59.309Z,100744.98
2018-09-18T15:23:28.832Z,100738.17
2018-09-18T15:25:58.271Z,100737.60
2018-09-18T15:28:27.697Z,100742.23
2018-09-18T15:30:57.079Z,100746.80
2018-09-18T15:33:26.486Z,100743.64
2018-09-18T15:35:55.943Z,100736.41
2018-09-18T15:38:26.034Z,100742.22
2018-09-18T15:40:55.499Z,100738.89
2018-09-18T15:43:24.900Z,100741.50
2018-09-18T15:45:55.488Z,100737.55
2018-09-18T15:48:25.038Z,100738.81
2018-09-18T15:50:54.616Z,100733.88
2018-09-18T15:53:24.169Z,100735.41
2018-09-18T15:55:53.594Z,100734.91
2018-09-18T15:58:23.169Z,100734.97
2018-09-18T16:00:53.021Z,100729.59
2018-09-18T16:03:22.453Z,100725.94
2018-09-18T16:05:52.058Z,100727.80
2018-09-18T16:08:21.884Z,100724.80
2018-09-18T16:10:51.476Z,100720.52
2018-09-18T16:13:20.899Z,100724.41
2018-09-18T16:15:50.403Z,100722.69
2018-09-18T16:18:19.863Z,100728.09
2018-09-18T16:20:49.350Z,100727.48
2018-09-18T16:23:19.145Z,100726.13
2018-09-18T16:25:48.631Z,100722.34
2018-09-18T16:28:18.257Z,100723.06
2018-09-18T16:30:47.832Z,100727.53
2018-09-18T16:33:17.402Z,100729.97
2018-09-18T16:35:47.476Z,100728.41
2018-09-18T16:38:16.904Z,100727.05
2018-09-18T16:40:46.330Z,100725.89
2018-09-18T16:43:15.755Z,100716.74
2018-09-18T16:45:45.592Z,100722.22
2018-09-18T16:48:15.027Z,100719.09
2018-09-18T16:50:44.502Z,100727.58
2018-09-18T16:53:14.760Z,100726.61
2018-09-18T16:55:44.278Z,100724.30
2018-09-18T16:58:13.835Z,100726.88
2018-09-18T17:00:43.400Z,100728.06
2018-09-18T17:03:12.812Z,100727.09
2018-09-18T17:05:42.259Z,100736.45
2018-09-18T17:08:12.351Z,100732.95
2018-09-18T17:10:41.976Z,100738.89
2018-09-18T17:13:12.173Z,100745.30
2018-09-18T17:15:41.537Z,100751.31
2018-09-18T17:18:11.044Z,100754.30
2018-09-18T17:20:40.710Z,100753.66
2018-09-18T17:23:10.160Z,100757.19
2018-09-18T17:25:39.753Z,100755.98
2018-09-18T17:28:09.212Z,100762.25
2018-09-18T17:30:39.104Z,100758.67
2018-09-18T17:33:09.429Z,100763.86
2018-09-18T17:35:39.039Z,100771.05
2018-09-18T17:38:08.387Z,100770.91
2018-09-18T17:40:37.818Z,100777.30
2018-09-18T17:43:07.483Z,100780.69
2018-09-18T17:45:36.995Z,100786.23
2018-09-18T17:48:06.843Z,100788.10
2018-09-18T17:50:36.315Z,100796.13
2018-09-18T17:53:06.510Z,100803.11
2018-09-18T17:55:35.962Z,100804.49
2018-09-18T17:58:05.449Z,100808.27
2018-09-18T18:00:35.339Z,100814.05
2018-09-18T18:03:04.848Z,100812.27
2018-09-18T18:05:34.345Z,100816.59
2018-09-18T18:08:03.782Z,100810.56
2018-09-18T18:10:33.431Z,100813.28
2018-09-18T18:13:03.524Z,100821.39
2018-09-18T18:15:33.503Z,100824.28
2018-09-18T18:18:02.914Z,100822.41
2018-09-18T18:20:32.751Z,100828.80
2018-09-18T18:23:02.127Z,100822.16
2018-09-18T18:25:31.585Z,100836.75
2018-09-18T18:28:01.020Z,100841.52
2018-09-18T18:30:30.477Z,100842.05
2018-09-18T18:32:59.947Z,100847.13
2018-09-18T18:35:29.470Z,100847.14
2018-09-18T18:37:59.195Z,100852.19
2018-09-18T18:40:28.980Z,100846.61
2018-09-18T18:42:58.412Z,100860.25
2018-09-18T18:45:28.261Z,100869.17
2018-09-18T18:47:57.783Z,100860.25
2018-09-18T18:50:27.406Z,100865.81
2018-09-18T18:52:57.014Z,100871.10
2018-09-18T18:55:26.807Z,100879.98
2018-09-18T18:57:56.454Z,100884.39
2018-09-18T19:00:26.646Z,100885.50
2018-09-18T19:02:56.500Z,100894.11
2018-09-18T19:05:26.077Z,100917.11
2018-09-18T19:07:56.179Z,100927.94
2018-09-18T19:10:25.628Z,100934.56
2018-09-18T19:12:55.032Z,100946.44
2018-09-18T19:15:24.846Z,100955.75
2018-09-18T19:17:54.281Z,100959.28
2018-09-18T19:20:24.602Z,100966.73
2018-09-18T19:22:55.234Z,100971.42
2018-09-18T19:25:24.760Z,100975.70
2018-09-18T19:27:55.288Z,100982.74
2018-09-18T19:30:27.340Z,100984.03
2018-09-18T19:32:59.457Z,101001.00
2018-09-18T19:35:29.058Z,101005.14
2018-09-18T19:37:58.585Z,101009.14
2018-09-18T19:40:28.575Z,101007.03
2018-09-18T19:42:59.426Z,101021.07
2018-09-18T19:45:30.817Z,101029.25
2018-09-18T19:48:00.353Z,101029.98
2018-09-18T19:50:30.423Z,101033.42
2018-09-18T19:53:00.411Z,101039.20
2018-09-18T19:55:29.844Z,101045.52
2018-09-18T19:57:59.929Z,101045.86
2018-09-18T20:00:29.988Z,101053.41
2018-09-18T20:02:59.866Z,101066.22
2018-09-18T20:05:30.350Z,101076.01
2018-09-18T20:07:59.786Z,101078.19
2018-09-18T20:10:29.399Z,101080.55
2018-09-18T20:12:58.911Z,101088.78
2018-09-18T20:15:29.093Z,101089.07
2018-09-18T20:18:03.221Z,101096.77
2018-09-18T20:20:34.020Z,101096.20
2018-09-18T20:23:03.673Z,101098.92
2018-09-18T20:25:33.435Z,101098.89
2018-09-18T20:28:02.930Z,101100.21
2018-09-18T20:30:32.597Z,101109.55
2018-09-18T20:33:02.235Z,101108.30
2018-09-18T20:35:32.017Z,101109.97
2018-09-18T20:38:01.677Z,101120.31
2018-09-18T20:40:31.333Z,101122.53
2018-09-18T20:43:02.356Z,101124.45
2018-09-18T20:45:31.960Z,101131.02
2018-09-18T20:48:01.715Z,101132.80
2018-09-18T20:50:31.298Z,101126.28
2018-09-18T20:53:00.715Z,101129.16
2018-09-18T20:55:30.248Z,101130.52
2018-09-18T20:57:59.932Z,101120.05
2018-09-18T21:00:29.547Z,101123.09
2018-09-18T21:02:59.317Z,101126.09
2018-09-18T21:05:29.062Z,101132.18
2018-09-18T21:07:58.966Z,101139.64
2018-09-18T21:10:28.934Z,101143.44
2018-09-18T21:12:58.474Z,101151.33
2018-09-18T21:15:29.274Z,101155.91
2018-09-18T21:17:58.899Z,101167.86
2018-09-18T21:20:29.284Z,101161.14
2018-09-18T21:22:58.933Z,101166.92
2018-09-18T21:25:39.545Z,101162.32
2018-09-18T21:28:09.177Z,101177.00
2018-09-18T21:30:38.854Z,101176.09
2018-09-18T21:33:08.437Z,101179.05
2018-09-18T21:35:37.796Z,101174.64
2018-09-18T21:38:07.415Z,101181.26
2018-09-18T21:40:37.065Z,101178.26
2018-09-18T21:43:06.773Z,101169.77
2018-09-18T21:45:36.387Z,101185.53
2018-09-18T21:48:05.890Z,101182.71
2018-09-18T21:50:38.570Z,101190.52
2018-09-18T21:53:12.037Z,101181.86
2018-09-18T21:55:42.219Z,101180.78
2018-09-18T21:58:11.643Z,101182.03
2018-09-18T22:00:41.670Z,101186.90
2018-09-18T22:03:11.430Z,101180.80
2018-09-18T22:05:41.076Z,101189.69
2018-09-18T22:08:10.540Z,101184.50
2018-09-18T22:10:41.594Z,101189.80
2018-09-18T22:13:11.110Z,101195.99
2018-09-18T22:15:40.805Z,101201.83
2018-09-18T22:18:10.280Z,101204.39
2018-09-18T22:20:39.990Z,101205.70
2018-09-18T22:23:10.292Z,101202.09
2018-09-18T22:25:39.961Z,101210.63
2018-09-18T22:28:09.701Z,101212.91
2018-09-18T22:30:39.111Z,101217.42
2018-09-18T22:33:08.538Z,101216.81
2018-09-18T22:35:37.923Z,101219.82
2018-09-18T22:38:07.734Z,101218.92
2018-09-18T22:40:37.130Z,101221.30
2018-09-18T22:43:06.773Z,101222.92
2018-09-18T22:45:36.552Z,101226.06
2018-09-18T22:48:06.091Z,101235.81
2018-09-18T22:50:35.524Z,101234.94
2018-09-18T22:53:04.933Z,101244.44
2018-09-18T22:55:34.337Z,101247.20
2018-09-18T22:58:03.735Z,101254.32
2018-09-18T23:00:33.142Z,101256.53
2018-09-18T23:03:02.744Z,101251.46
2018-09-18T23:05:32.534Z,101251.78
2018-09-18T23:08:02.166Z,101255.48
2018-09-18T23:10:31.645Z,101257.84
2018-09-18T23:13:01.066Z,101259.90
2018-09-18T23:15:30.571Z,101260.97
2018-09-18T23:18:00.133Z,101266.11
2018-09-18T23:20:36.033Z,101264.00
2018-09-18T23:23:05.415Z,101262.77
2018-09-18T23:25:35.116Z,101262.59
2018-09-18T23:28:04.894Z,101259.22
2018-09-18T23:30:34.315Z,101255.36
2018-09-18T23:33:03.842Z,101256.15
2018-09-18T23:35:33.302Z,101255.14
2018-09-18T23:38:03.191Z,101248.61
2018-09-18T23:40:32.722Z,101255.95
2018-09-18T23:43:02.108Z,101252.34
2018-09-18T23:45:31.436Z,101255.05
2018-09-18T23:48:00.861Z,101261.77
2018-09-18T23:50:30.607Z,101266.59
2018-09-18T23:53:00.012Z,101261.34
2018-09-18T23:55:29.881Z,101260.52
2018-09-18T23:57:59.347Z,101263.09
